createdAt,value
2022-08-24T00:00:23.414Z,100653.22
2022-08-24T00:01:28.253Z,100653.22
2022-08-24T00:02:30.500Z,100654.38
2022-08-24T00:03:34.829Z,100655.19
2022-08-24T00:04:37.385Z,100651.56
2022-08-24T00:05:42.334Z,100651.56
2022-08-24T00:06:44.620Z,100654.38
2022-08-24T00:07:48.321Z,100655.50
2022-08-24T00:08:52.580Z,100652.72
2022-08-24T00:09:55.405Z,100651.03
2022-08-24T00:10:57.598Z,100651.88
2022-08-24T00:12:01.578Z,100653.84
2022-08-24T00:13:03.880Z,100657.50
2022-08-24T00:14:12.189Z,100653.03
2022-08-24T00:15:15.781Z,100666.19
2022-08-24T00:16:18.529Z,100660.28
2022-08-24T00:17:21.351Z,100654.97
2022-08-24T00:18:23.697Z,100663.38
2022-08-24T00:19:27.028Z,100668.19
2022-08-24T00:20:29.452Z,100655.81
2022-08-24T00:21:31.655Z,100666.19
2022-08-24T00:22:33.860Z,100659.78
2022-08-24T00:23:36.375Z,100664.22
2022-08-24T00:24:38.558Z,100666.19
2022-08-24T00:25:41.208Z,100667.34
2022-08-24T00:26:43.433Z,100661.75
2022-08-24T00:27:46.154Z,100660.59
2022-08-24T00:28:48.702Z,100661.44
2022-08-24T00:29:51.074Z,100651.38
2022-08-24T00:30:53.682Z,100652.19
2022-08-24T00:31:56.001Z,100654.97
2022-08-24T00:32:58.330Z,100653.03
2022-08-24T00:34:00.564Z,100648.56
2022-08-24T00:35:06.930Z,100653.03
2022-08-24T00:36:09.341Z,100654.16
2022-08-24T00:37:11.525Z,100661.44
2022-08-24T00:38:14.455Z,100654.16
2022-08-24T00:39:20.266Z,100648.56
2022-08-24T00:40:35.239Z,100654.16
2022-08-24T00:41:46.793Z,100652.19
2022-08-24T00:42:56.140Z,100651.38
2022-08-24T00:44:02.893Z,100651.38
2022-08-24T00:45:07.523Z,100652.19
2022-08-24T00:46:25.814Z,100651.38
2022-08-24T00:47:39.751Z,100654.97
2022-08-24T00:48:48.166Z,100654.97
2022-08-24T00:50:01.042Z,100661.75
2022-08-24T00:51:11.966Z,100654.16
2022-08-24T00:52:17.482Z,100652.50
2022-08-24T00:53:25.987Z,100652.19
2022-08-24T00:54:31.093Z,100658.09
2022-08-24T00:55:38.111Z,100657.28
2022-08-24T00:56:45.745Z,100654.47
2022-08-24T00:57:52.570Z,100644.41
2022-08-24T00:59:00.853Z,100654.81
2022-08-24T01:00:14.782Z,100659.56
2022-08-24T01:01:17.577Z,100653.16
2022-08-24T01:02:44.531Z,100661.56
2022-08-24T01:03:46.889Z,100654.59
2022-08-24T01:05:00.955Z,100653.47
2022-08-24T01:06:04.121Z,100661.03
2022-08-24T01:07:06.754Z,100654.59
2022-08-24T01:08:11.074Z,100658.53
2022-08-24T01:09:14.302Z,100652.13
2022-08-24T01:10:26.018Z,100657.72
2022-08-24T01:11:33.840Z,100656.88
2022-08-24T01:12:42.105Z,100651.28
2022-08-24T01:14:04.221Z,100656.38
2022-08-24T01:15:09.403Z,100654.41
2022-08-24T01:16:13.199Z,100653.56
2022-08-24T01:17:38.831Z,100654.72
2022-08-24T01:18:50.781Z,100657.50
2022-08-24T01:19:57.393Z,100656.69
2022-08-24T01:21:16.089Z,100657.50
2022-08-24T01:22:44.779Z,100667.06
2022-08-24T01:24:02.846Z,100666.25
2022-08-24T01:25:05.746Z,100670.16
2022-08-24T01:26:12.873Z,100660.94
2022-08-24T01:27:19.232Z,100657.31
2022-08-24T01:28:27.356Z,100662.91
2022-08-24T01:29:33.481Z,100662.09
2022-08-24T01:30:38.958Z,100665.72
2022-08-24T01:31:41.969Z,100664.88
2022-08-24T01:32:59.127Z,100666.56
2022-08-24T01:34:02.225Z,100669.66
2022-08-24T01:35:08.569Z,100666.03
2022-08-24T01:36:38.918Z,100660.44
2022-08-24T01:37:41.240Z,100660.44
2022-08-24T01:38:47.129Z,100657.63
2022-08-24T01:39:52.154Z,100655.97
2022-08-24T01:41:01.135Z,100662.41
2022-08-24T01:42:06.877Z,100668.81
2022-08-24T01:43:11.479Z,100663.53
2022-08-24T01:44:13.962Z,100662.69
2022-08-24T01:45:17.445Z,100660.75
2022-08-24T01:46:21.950Z,100665.22
2022-08-24T01:47:24.215Z,100659.06
2022-08-24T01:48:27.923Z,100667.16
2022-08-24T01:49:33.877Z,100656.28
2022-08-24T01:50:38.666Z,100661.56
2022-08-24T01:51:43.865Z,100649.84
2022-08-24T01:53:06.331Z,100657.94
2022-08-24T01:54:13.015Z,100656.28
2022-08-24T01:55:19.778Z,100652.66
2022-08-24T01:56:25.053Z,100657.09
2022-08-24T01:57:30.584Z,100661.88
2022-08-24T01:58:33.162Z,100653.78
2022-08-24T01:59:36.013Z,100649.00
2022-08-24T02:00:38.845Z,100654.63
2022-08-24T02:01:46.678Z,100643.41
2022-08-24T02:02:51.361Z,100646.22
2022-08-24T02:03:53.899Z,100653.78
2022-08-24T02:04:59.456Z,100655.75
2022-08-24T02:06:02.302Z,100660.53
2022-08-24T02:07:06.063Z,100653.28
2022-08-24T02:08:09.538Z,100668.13
2022-08-24T02:09:14.612Z,100657.19
2022-08-24T02:10:17.212Z,100656.38
2022-08-24T02:11:19.417Z,100666.78
2022-08-24T02:12:22.083Z,100654.72
2022-08-24T02:13:24.463Z,100661.19
2022-08-24T02:14:26.862Z,100664.25
2022-08-24T02:15:40.481Z,100657.03
2022-08-24T02:16:45.308Z,100661.78
2022-08-24T02:17:50.661Z,100651.72
2022-08-24T02:18:52.971Z,100659.28
2022-08-24T02:19:55.227Z,100661.28
2022-08-24T02:20:58.097Z,100656.81
2022-08-24T02:22:00.900Z,100658.81
2022-08-24T02:23:04.847Z,100659.94
2022-08-24T02:24:08.233Z,100651.84
2022-08-24T02:25:10.459Z,100654.66
2022-08-24T02:26:20.512Z,100655.78
2022-08-24T02:27:22.760Z,100654.44
2022-08-24T02:28:25.777Z,100653.59
2022-08-24T02:29:28.353Z,100653.91
2022-08-24T02:30:32.050Z,100655.03
2022-08-24T02:31:34.871Z,100653.09
2022-08-24T02:32:37.135Z,100649.75
2022-08-24T02:33:41.232Z,100646.16
2022-08-24T02:34:44.263Z,100655.66
2022-08-24T02:35:47.184Z,100660.44
2022-08-24T02:36:53.814Z,100653.16
2022-08-24T02:37:56.880Z,100656.28
2022-08-24T02:38:59.278Z,100649.84
2022-08-24T02:40:02.029Z,100650.16
2022-08-24T02:41:06.148Z,100660.53
2022-08-24T02:42:08.415Z,100655.22
2022-08-24T02:43:10.677Z,100652.72
2022-08-24T02:44:15.363Z,100655.84
2022-08-24T02:45:18.116Z,100657.00
2022-08-24T02:46:23.561Z,100657.31
2022-08-24T02:47:38.192Z,100655.13
2022-08-24T02:48:41.877Z,100654.59
2022-08-24T02:49:44.144Z,100651.00
2022-08-24T02:50:49.246Z,100654.91
2022-08-24T02:51:54.162Z,100660.84
2022-08-24T02:52:57.399Z,100658.63
2022-08-24T02:54:01.568Z,100660.63
2022-08-24T02:55:05.766Z,100665.41
2022-08-24T02:56:07.973Z,100666.84
2022-08-24T02:57:10.325Z,100671.09
2022-08-24T02:58:13.929Z,100664.66
2022-08-24T02:59:17.360Z,100668.06
2022-08-24T03:00:21.771Z,100667.25
2022-08-24T03:01:30.585Z,100667.53
2022-08-24T03:02:33.480Z,100666.72
2022-08-24T03:03:42.217Z,100667.84
2022-08-24T03:04:44.948Z,100665.38
2022-08-24T03:05:52.040Z,100662.03
2022-08-24T03:06:57.173Z,100666.00
2022-08-24T03:07:59.436Z,100671.88
2022-08-24T03:09:03.972Z,100671.88
2022-08-24T03:10:07.577Z,100672.19
2022-08-24T03:11:09.825Z,100662.44
2022-08-24T03:12:12.213Z,100675.94
2022-08-24T03:13:14.578Z,100670.34
2022-08-24T03:14:18.727Z,100666.69
2022-08-24T03:15:22.656Z,100672.59
2022-08-24T03:16:26.534Z,100672.91
2022-08-24T03:17:35.574Z,100676.84
2022-08-24T03:18:43.728Z,100676.03
2022-08-24T03:19:46.714Z,100671.56
2022-08-24T03:20:49.616Z,100671.88
2022-08-24T03:21:54.370Z,100681.09
2022-08-24T03:25:00.585Z,100674.44
2022-08-24T03:26:05.204Z,100679.81
2022-08-24T03:27:08.206Z,100676.22
2022-08-24T03:28:12.280Z,100681.81
2022-08-24T03:29:16.050Z,100678.47
2022-08-24T03:30:19.903Z,100686.88
2022-08-24T03:31:31.342Z,100677.97
2022-08-24T03:32:34.464Z,100690.28
2022-08-24T03:33:37.833Z,100687.78
2022-08-24T03:34:40.968Z,100692.53
2022-08-24T03:35:43.446Z,100688.94
2022-08-24T03:36:47.561Z,100691.19
2022-08-24T03:37:51.822Z,100683.91
2022-08-24T03:38:54.188Z,100680.31
2022-08-24T03:39:56.968Z,100689.81
2022-08-24T03:41:01.574Z,100689.00
2022-08-24T03:42:04.031Z,100687.34
2022-08-24T03:43:06.840Z,100689.31
2022-08-24T03:44:09.166Z,100690.44
2022-08-24T03:45:12.473Z,100694.91
2022-08-24T03:46:20.528Z,100690.72
2022-08-24T03:47:22.856Z,100694.34
2022-08-24T03:48:25.254Z,100691.56
2022-08-24T03:49:27.651Z,100693.53
2022-08-24T03:50:30.009Z,100691.56
2022-08-24T03:51:32.362Z,100692.69
2022-08-24T03:52:35.611Z,100690.72
2022-08-24T03:53:37.965Z,100693.84
2022-08-24T03:54:45.218Z,100693.84
2022-08-24T03:55:47.379Z,100699.44
2022-08-24T03:56:50.292Z,100698.59
2022-08-24T03:57:53.247Z,100701.38
2022-08-24T03:58:56.328Z,100696.63
2022-08-24T04:00:02.235Z,100699.44
2022-08-24T04:01:06.503Z,100704.16
2022-08-24T04:02:10.254Z,100699.72
2022-08-24T04:03:15.867Z,100703.34
2022-08-24T04:04:18.301Z,100704.47
2022-08-24T04:05:20.541Z,100712.34
2022-08-24T04:06:23.877Z,100708.72
2022-08-24T04:07:26.113Z,100710.69
2022-08-24T04:08:28.551Z,100714.31
2022-08-24T04:09:30.736Z,100719.09
2022-08-24T04:10:36.336Z,100709.84
2022-08-24T04:11:41.340Z,100721.88
2022-08-24T04:12:44.077Z,100711.81
2022-08-24T04:13:49.679Z,100718.53
2022-08-24T04:14:53.606Z,100717.41
2022-08-24T04:15:56.259Z,100719.38
2022-08-24T04:16:59.729Z,100714.63
2022-08-24T04:18:10.932Z,100714.09
2022-08-24T04:19:14.896Z,100712.94
2022-08-24T04:20:17.207Z,100721.34
2022-08-24T04:21:28.663Z,100718.53
2022-08-24T04:22:34.354Z,100718.53
2022-08-24T04:23:46.981Z,100726.13
2022-08-24T04:24:52.025Z,100713.25
2022-08-24T04:25:54.442Z,100716.06
2022-08-24T04:26:56.630Z,100719.69
2022-08-24T04:28:00.470Z,100722.16
2022-08-24T04:29:08.131Z,100712.13
2022-08-24T04:30:14.199Z,100714.94
2022-08-24T04:31:38.332Z,100710.16
2022-08-24T04:32:40.889Z,100715.75
2022-08-24T04:33:49.913Z,100716.56
2022-08-24T04:34:57.437Z,100720.22
2022-08-24T04:35:59.811Z,100716.28
2022-08-24T04:37:08.492Z,100720.22
2022-08-24T04:38:14.184Z,100718.22
2022-08-24T04:39:21.064Z,100723.00
2022-08-24T04:40:49.959Z,100724.69
2022-08-24T04:41:53.292Z,100723.00
2022-08-24T04:42:59.134Z,100720.22
2022-08-24T04:44:03.024Z,100721.88
2022-08-24T04:45:05.558Z,100723.84
2022-08-24T04:46:08.735Z,100719.09
2022-08-24T04:47:13.847Z,100718.22
2022-08-24T04:48:16.195Z,100717.09
2022-08-24T04:49:18.441Z,100717.09
2022-08-24T04:50:20.991Z,100713.50
2022-08-24T04:51:26.953Z,100721.56
2022-08-24T04:52:34.195Z,100717.94
2022-08-24T04:53:37.086Z,100722.38
2022-08-24T04:54:40.017Z,100722.38
2022-08-24T04:55:49.958Z,100723.25
2022-08-24T04:56:56.348Z,100724.06
2022-08-24T04:57:58.740Z,100725.72
2022-08-24T04:59:02.582Z,100728.53
2022-08-24T05:00:06.584Z,100720.63
2022-08-24T05:01:10.036Z,100735.78
2022-08-24T05:02:13.259Z,100728.22
2022-08-24T05:03:15.715Z,100729.03
2022-08-24T05:04:18.298Z,100730.69
2022-08-24T05:05:20.541Z,100732.69
2022-08-24T05:06:28.556Z,100732.41
2022-08-24T05:07:31.617Z,100737.69
2022-08-24T05:08:35.056Z,100734.06
2022-08-24T05:09:37.296Z,100738.53
2022-08-24T05:10:45.234Z,100734.56
2022-08-24T05:11:49.678Z,100731.78
2022-08-24T05:12:59.606Z,100738.22
2022-08-24T05:14:01.880Z,100739.03
2022-08-24T05:15:05.706Z,100734.25
2022-08-24T05:16:16.458Z,100745.16
2022-08-24T05:17:19.080Z,100745.16
2022-08-24T05:18:21.356Z,100737.28
2022-08-24T05:19:23.965Z,100741.75
2022-08-24T05:20:26.960Z,100741.75
2022-08-24T05:21:30.986Z,100739.78
2022-08-24T05:22:38.660Z,100746.22
2022-08-24T05:23:42.827Z,100741.13
2022-08-24T05:24:47.665Z,100748.41
2022-08-24T05:25:49.858Z,100742.78
2022-08-24T05:26:55.501Z,100738.88
2022-08-24T05:28:00.928Z,100741.34
2022-08-24T05:29:03.633Z,100747.81
2022-08-24T05:30:14.249Z,100741.03
2022-08-24T05:31:19.844Z,100758.38
2022-08-24T05:32:22.189Z,100748.53
2022-08-24T05:33:25.954Z,100748.22
2022-08-24T05:34:30.815Z,100749.91
2022-08-24T05:35:43.635Z,100756.53
2022-08-24T05:36:46.852Z,100747.81
2022-08-24T05:38:15.508Z,100753.34
2022-08-24T05:39:18.264Z,100751.91
2022-08-24T05:40:33.255Z,100754.09
2022-08-24T05:41:36.295Z,100759.88
2022-08-24T05:42:46.885Z,100756.19
2022-08-24T05:43:50.311Z,100752.75
2022-08-24T05:44:56.307Z,100757.44
2022-08-24T05:45:58.790Z,100759.31
2022-08-24T05:47:02.378Z,100756.41
2022-08-24T05:48:07.964Z,100759.13
2022-08-24T05:49:40.769Z,100753.09
2022-08-24T05:50:44.320Z,100754.72
2022-08-24T05:51:47.321Z,100749.53
2022-08-24T05:52:50.339Z,100755.56
2022-08-24T05:53:52.857Z,100752.03
2022-08-24T05:54:59.279Z,100754.44
2022-08-24T05:56:12.449Z,100758.97
2022-08-24T05:57:18.449Z,100757.41
2022-08-24T05:58:32.906Z,100760.00
2022-08-24T05:59:37.938Z,100764.56
2022-08-24T06:00:47.229Z,100766.00
2022-08-24T06:01:53.609Z,100767.75
2022-08-24T06:02:56.454Z,100768.66
2022-08-24T06:03:59.595Z,100763.63
2022-08-24T06:05:01.892Z,100760.91
2022-08-24T06:06:07.280Z,100764.63
2022-08-24T06:07:10.324Z,100769.16
2022-08-24T06:08:16.200Z,100758.81
2022-08-24T06:09:18.390Z,100769.31
2022-08-24T06:10:36.218Z,100765.41
2022-08-24T06:11:41.043Z,100767.09
2022-08-24T06:12:43.782Z,100765.50
2022-08-24T06:13:55.483Z,100766.69
2022-08-24T06:15:04.278Z,100772.03
2022-08-24T06:16:21.596Z,100764.81
2022-08-24T06:17:25.310Z,100764.84
2022-08-24T06:18:27.653Z,100766.00
2022-08-24T06:19:30.392Z,100770.38
2022-08-24T06:20:34.236Z,100770.41
2022-08-24T06:21:38.104Z,100762.66
2022-08-24T06:22:44.347Z,100763.81
2022-08-24T06:23:46.929Z,100767.81
2022-08-24T06:25:07.993Z,100764.03
2022-08-24T06:26:31.401Z,100770.16
2022-08-24T06:27:34.101Z,100762.56
2022-08-24T06:28:37.006Z,100764.88
2022-08-24T06:29:39.454Z,100771.72
2022-08-24T06:31:07.468Z,100772.19
2022-08-24T06:32:09.911Z,100761.28
2022-08-24T06:33:15.454Z,100765.25
2022-08-24T06:34:19.975Z,100779.34
2022-08-24T06:35:23.775Z,100775.69
2022-08-24T06:36:26.368Z,100765.91
2022-08-24T06:37:29.461Z,100764.56
2022-08-24T06:38:32.505Z,100768.84
2022-08-24T06:39:38.884Z,100771.19
2022-08-24T06:40:41.745Z,100776.63
2022-08-24T06:41:44.986Z,100772.50
2022-08-24T06:42:53.323Z,100772.31
2022-08-24T06:44:12.525Z,100770.63
2022-08-24T06:45:32.910Z,100767.78
2022-08-24T06:46:38.949Z,100767.28
2022-08-24T06:47:42.126Z,100775.19
2022-08-24T06:48:45.484Z,100775.50
2022-08-24T06:49:48.186Z,100763.69
2022-08-24T06:50:50.504Z,100780.94
2022-08-24T06:51:52.833Z,100780.38
2022-08-24T06:52:55.172Z,100771.75
2022-08-24T06:53:59.447Z,100782.16
2022-08-24T06:55:02.668Z,100777.16
2022-08-24T06:56:05.963Z,100782.75
2022-08-24T06:57:12.547Z,100781.69
2022-08-24T06:58:15.307Z,100781.50
2022-08-24T06:59:17.534Z,100781.78
2022-08-24T07:00:20.683Z,100776.75
2022-08-24T07:01:28.541Z,100778.72
2022-08-24T07:02:34.379Z,100787.13
2022-08-24T07:03:38.568Z,100781.78
2022-08-24T07:04:54.025Z,100787.00
2022-08-24T07:06:15.319Z,100782.56
2022-08-24T07:07:18.396Z,100786.13
2022-08-24T07:08:21.651Z,100781.25
2022-08-24T07:09:25.194Z,100777.66
2022-08-24T07:10:31.108Z,100776.00
2022-08-24T07:11:35.196Z,100782.88
2022-08-24T07:12:40.459Z,100784.91
2022-08-24T07:13:45.827Z,100782.09
2022-08-24T07:14:48.848Z,100777.97
2022-08-24T07:15:52.476Z,100776.38
2022-08-24T07:16:54.775Z,100777.19
2022-08-24T07:17:57.716Z,100780.38
2022-08-24T07:19:04.747Z,100773.06
2022-08-24T07:20:09.215Z,100778.69
2022-08-24T07:21:41.647Z,100772.78
2022-08-24T07:22:44.911Z,100775.56
2022-08-24T07:23:48.811Z,100782.38
2022-08-24T07:24:51.079Z,100778.66
2022-08-24T07:25:56.211Z,100784.63
2022-08-24T07:26:59.349Z,100785.31
2022-08-24T07:28:03.171Z,100786.47
2022-08-24T07:29:43.623Z,100789.50
2022-08-24T07:30:40.472Z,100782.84
2022-08-24T07:31:44.055Z,100779.34
2022-08-24T07:32:57.032Z,100777.06
2022-08-24T07:34:00.518Z,100787.31
2022-08-24T07:35:02.868Z,100782.19
2022-08-24T07:36:06.184Z,100776.28
2022-08-24T07:37:08.428Z,100778.84
2022-08-24T07:38:13.960Z,100778.19
2022-08-24T07:39:19.410Z,100778.75
2022-08-24T07:40:22.567Z,100778.94
2022-08-24T07:41:43.651Z,100783.94
2022-08-24T07:42:55.368Z,100780.13
2022-08-24T07:43:58.071Z,100785.13
2022-08-24T07:45:00.583Z,100786.16
2022-08-24T07:46:05.434Z,100787.97
2022-08-24T07:47:34.477Z,100785.31
2022-08-24T07:48:31.859Z,100781.03
2022-08-24T07:49:37.545Z,100789.75
2022-08-24T07:50:46.613Z,100786.66
2022-08-24T07:51:53.345Z,100784.38
2022-08-24T07:52:55.611Z,100782.88
2022-08-24T07:53:58.131Z,100787.47
2022-08-24T07:55:06.815Z,100788.34
2022-08-24T07:56:13.988Z,100787.25
2022-08-24T07:57:19.461Z,100785.28
2022-08-24T07:58:21.952Z,100789.78
2022-08-24T07:59:24.627Z,100789.41
2022-08-24T08:00:27.625Z,100795.91
2022-08-24T08:01:35.095Z,100791.06
2022-08-24T08:02:38.871Z,100797.56
2022-08-24T08:03:42.037Z,100795.47
2022-08-24T08:04:44.252Z,100801.53
2022-08-24T08:05:46.803Z,100797.84
2022-08-24T08:06:51.428Z,100794.56
2022-08-24T08:07:53.747Z,100793.31
2022-08-24T08:08:56.278Z,100793.22
2022-08-24T08:09:58.654Z,100800.09
2022-08-24T08:11:02.729Z,100788.66
2022-08-24T08:12:08.234Z,100790.56
2022-08-24T08:13:12.105Z,100800.22
2022-08-24T08:14:20.472Z,100794.47
2022-08-24T08:15:22.826Z,100806.91
2022-08-24T08:16:39.264Z,100804.38
2022-08-24T08:17:41.521Z,100798.16
2022-08-24T08:18:43.697Z,100802.09
2022-08-24T08:19:48.254Z,100804.41
2022-08-24T08:20:50.734Z,100799.88
2022-08-24T08:22:13.732Z,100800.16
2022-08-24T08:23:54.267Z,100804.00
2022-08-24T08:25:01.418Z,100795.69
2022-08-24T08:26:03.866Z,100801.25
2022-08-24T08:27:29.003Z,100798.22
2022-08-24T08:28:36.151Z,100797.31
2022-08-24T08:29:40.943Z,100800.06
2022-08-24T08:30:44.985Z,100798.34
2022-08-24T08:31:48.179Z,100804.72
2022-08-24T08:32:53.641Z,100800.19
2022-08-24T08:33:56.563Z,100800.56
2022-08-24T08:35:02.147Z,100796.78
2022-08-24T08:36:12.603Z,100807.22
2022-08-24T08:37:23.438Z,100805.13
2022-08-24T08:38:28.663Z,100809.03
2022-08-24T08:39:31.532Z,100803.25
2022-08-24T08:41:13.729Z,100806.00
2022-08-24T08:42:38.612Z,100803.06
2022-08-24T08:44:04.456Z,100808.19
2022-08-24T08:45:21.857Z,100814.94
2022-08-24T08:47:07.969Z,100815.19
2022-08-24T08:48:29.311Z,100819.94
2022-08-24T08:50:10.929Z,100818.91
2022-08-24T08:51:45.545Z,100809.84
2022-08-24T08:53:05.358Z,100814.13
2022-08-24T08:54:11.174Z,100819.69
2022-08-24T08:55:24.223Z,100820.41
2022-08-24T08:57:09.965Z,100812.97
2022-08-24T08:58:53.818Z,100805.94
2022-08-24T09:00:15.583Z,100806.63
2022-08-24T09:01:47.535Z,100807.34
2022-08-24T09:03:19.205Z,100809.72
2022-08-24T09:05:14.439Z,100800.78
2022-08-24T09:07:02.402Z,100803.59
2022-08-24T09:08:51.878Z,100799.13
2022-08-24T09:10:06.933Z,100800.78
2022-08-24T09:11:55.452Z,100802.41
2022-08-24T09:13:25.113Z,100796.41
2022-08-24T09:14:42.766Z,100800.84
2022-08-24T09:16:22.853Z,100796.47
2022-08-24T09:17:40.829Z,100797.31
2022-08-24T09:18:50.719Z,100805.44
2022-08-24T09:20:31.664Z,100792.56
2022-08-24T09:22:05.709Z,100795.50
2022-08-24T09:23:36.633Z,100795.97
2022-08-24T09:25:06.127Z,100789.69
2022-08-24T09:26:47.150Z,100796.75
2022-08-24T09:28:28.781Z,100793.31
2022-08-24T09:29:59.319Z,100792.69
2022-08-24T09:31:36.352Z,100797.00
2022-08-24T09:33:00.681Z,100782.28
2022-08-24T09:34:16.038Z,100790.97
2022-08-24T09:35:28.013Z,100781.88
2022-08-24T09:36:47.401Z,100780.03
2022-08-24T09:38:14.022Z,100786.72
2022-08-24T09:39:34.844Z,100790.56
2022-08-24T09:40:58.293Z,100785.88
2022-08-24T09:42:22.018Z,100783.59
2022-08-24T09:43:39.330Z,100782.50
2022-08-24T09:44:47.284Z,100782.22
2022-08-24T09:46:23.390Z,100782.28
2022-08-24T09:47:58.573Z,100781.63
2022-08-24T09:49:16.014Z,100780.91
2022-08-24T09:50:50.774Z,100777.78
2022-08-24T09:52:18.771Z,100777.88
2022-08-24T09:53:53.795Z,100781.19
2022-08-24T09:55:27.003Z,100781.63
2022-08-24T09:56:53.816Z,100780.44
2022-08-24T09:58:26.662Z,100779.25
2022-08-24T09:59:44.634Z,100779.25
2022-08-24T10:00:54.533Z,100772.75
2022-08-24T10:02:30.014Z,100783.28
2022-08-24T10:03:55.706Z,100777.59
2022-08-24T10:05:19.133Z,100774.31
2022-08-24T10:06:43.493Z,100777.50
2022-08-24T10:07:58.506Z,100781.56
2022-08-24T10:09:00.742Z,100775.44
2022-08-24T10:10:18.337Z,100774.16
2022-08-24T10:11:52.890Z,100772.41
2022-08-24T10:13:29.648Z,100762.59
2022-08-24T10:14:50.848Z,100766.97
2022-08-24T10:16:22.358Z,100767.34
2022-08-24T10:17:46.301Z,100768.56
2022-08-24T10:19:01.350Z,100766.91
2022-08-24T10:20:19.078Z,100768.47
2022-08-24T10:21:39.802Z,100765.66
2022-08-24T10:23:01.505Z,100764.00
2022-08-24T10:24:30.934Z,100767.66
2022-08-24T10:25:46.070Z,100757.94
2022-08-24T10:27:23.629Z,100770.13
2022-08-24T10:28:58.097Z,100756.28
2022-08-24T10:30:37.760Z,100762.06
2022-08-24T10:32:00.738Z,100767.34
2022-08-24T10:33:18.378Z,100767.81
2022-08-24T10:34:46.758Z,100766.63
2022-08-24T10:36:00.971Z,100765.09
2022-08-24T10:37:25.826Z,100757.88
2022-08-24T10:38:59.452Z,100760.72
2022-08-24T10:40:32.093Z,100756.75
2022-08-24T10:42:35.492Z,100764.06
2022-08-24T10:43:40.586Z,100770.94
2022-08-24T10:45:01.351Z,100753.09
2022-08-24T10:46:45.804Z,100757.94
2022-08-24T10:48:25.459Z,100757.94
2022-08-24T10:49:36.603Z,100759.59
2022-08-24T10:50:53.313Z,100755.47
2022-08-24T10:52:13.564Z,100766.00
2022-08-24T10:53:34.932Z,100753.00
2022-08-24T10:54:40.348Z,100757.88
2022-08-24T10:55:43.523Z,100757.88
2022-08-24T10:56:45.688Z,100759.06
2022-08-24T10:58:25.826Z,100759.06
2022-08-24T10:59:41.167Z,100763.09
2022-08-24T11:00:45.164Z,100759.44
2022-08-24T11:02:31.600Z,100761.44
2022-08-24T11:03:48.675Z,100761.44
2022-08-24T11:05:00.286Z,100758.59
2022-08-24T11:06:15.394Z,100757.03
2022-08-24T11:07:27.552Z,100753.81
2022-08-24T11:08:33.621Z,100758.31
2022-08-24T11:09:53.322Z,100756.31
2022-08-24T11:11:24.652Z,100753.91
2022-08-24T11:12:30.665Z,100755.19
2022-08-24T11:13:34.070Z,100755.63
2022-08-24T11:14:46.842Z,100754.88
2022-08-24T11:15:55.285Z,100746.84
2022-08-24T11:17:23.883Z,100755.78
2022-08-24T11:18:47.817Z,100763.94
2022-08-24T11:19:51.598Z,100758.34
2022-08-24T11:20:55.936Z,100763.63
2022-08-24T11:22:05.150Z,100757.59
2022-08-24T11:23:08.801Z,100760.88
2022-08-24T11:24:19.398Z,100752.38
2022-08-24T11:25:30.505Z,100760.50
2022-08-24T11:26:48.543Z,100763.00
2022-08-24T11:28:06.254Z,100750.41
2022-08-24T11:29:08.465Z,100758.94
2022-08-24T11:30:15.491Z,100749.59
2022-08-24T11:31:40.163Z,100754.91
2022-08-24T11:32:55.217Z,100745.56
2022-08-24T11:34:04.147Z,100754.47
2022-08-24T11:35:26.413Z,100756.47
2022-08-24T11:36:32.279Z,100756.47
2022-08-24T11:37:39.761Z,100753.63
2022-08-24T11:38:45.584Z,100754.47
2022-08-24T11:39:48.185Z,100755.28
2022-08-24T11:40:55.374Z,100752.06
2022-08-24T11:42:06.651Z,100746.78
2022-08-24T11:43:20.624Z,100743.13
2022-08-24T11:44:37.167Z,100749.59
2022-08-24T11:46:22.703Z,100748.78
2022-08-24T11:47:39.257Z,100747.16
2022-08-24T11:49:24.308Z,100746.31
2022-08-24T11:50:57.534Z,100746.31
2022-08-24T11:52:32.187Z,100753.56
2022-08-24T11:53:43.518Z,100747.88
2022-08-24T11:54:55.946Z,100749.44
2022-08-24T11:56:21.642Z,100747.81
2022-08-24T11:57:47.626Z,100750.19
2022-08-24T11:59:07.549Z,100753.03
2022-08-24T12:00:15.440Z,100759.09
2022-08-24T12:01:43.562Z,100755.41
2022-08-24T12:03:05.869Z,100748.47
2022-08-24T12:04:43.049Z,100752.50
2022-08-24T12:05:58.644Z,100754.88
2022-08-24T12:07:31.706Z,100759.75
2022-08-24T12:08:49.594Z,100758.47
2022-08-24T12:10:14.718Z,100754.00
2022-08-24T12:11:47.664Z,100760.03
2022-08-24T12:13:09.532Z,100759.59
2022-08-24T12:14:41.456Z,100763.59
2022-08-24T12:15:52.419Z,100761.53
2022-08-24T12:17:05.686Z,100755.38
2022-08-24T12:18:15.764Z,100762.28
2022-08-24T12:19:30.148Z,100751.97
2022-08-24T12:22:02.128Z,100747.88
2022-08-24T12:23:12.252Z,100746.22
2022-08-24T12:24:38.256Z,100741.75
2022-08-24T12:26:00.261Z,100743.75
2022-08-24T12:27:13.482Z,100747.44
2022-08-24T12:28:28.266Z,100742.47
2022-08-24T12:30:07.865Z,100735.16
2022-08-24T12:31:17.412Z,100736.38
2022-08-24T12:32:25.759Z,100735.16
2022-08-24T12:33:37.483Z,100738.38
2022-08-24T12:34:47.374Z,100730.22
2022-08-24T12:35:59.517Z,100735.91
2022-08-24T12:37:29.625Z,100736.72
2022-08-24T12:38:43.779Z,100741.56
2022-08-24T12:39:54.218Z,100734.25
2022-08-24T12:41:19.080Z,100737.09
2022-08-24T12:42:38.366Z,100737.94
2022-08-24T12:43:49.877Z,100739.56
2022-08-24T12:45:05.640Z,100741.56
2022-08-24T12:46:08.069Z,100737.56
2022-08-24T12:47:13.447Z,100738.38
2022-08-24T12:48:21.617Z,100736.38
2022-08-24T12:49:38.448Z,100736.38
2022-08-24T12:50:49.347Z,100730.69
2022-08-24T12:52:03.267Z,100727.00
2022-08-24T12:53:13.609Z,100727.84
2022-08-24T12:54:22.544Z,100729.47
2022-08-24T12:55:52.308Z,100733.16
2022-08-24T12:56:54.832Z,100724.66
2022-08-24T12:59:42.948Z,100724.72
2022-08-24T13:00:47.216Z,100724.34
2022-08-24T13:02:17.682Z,100734.16
2022-08-24T13:03:42.240Z,100724.88
2022-08-24T13:04:50.386Z,100729.03
2022-08-24T13:05:58.413Z,100727.47
2022-08-24T13:07:07.033Z,100732.75
2022-08-24T13:08:33.901Z,100734.41
2022-08-24T13:09:45.803Z,100730.81
2022-08-24T13:11:04.830Z,100733.31
2022-08-24T13:12:38.121Z,100735.41
2022-08-24T13:13:47.677Z,100739.03
2022-08-24T13:14:54.149Z,100737.03
2022-08-24T13:16:03.043Z,100733.03
2022-08-24T13:17:05.566Z,100736.22
2022-08-24T13:18:13.994Z,100739.03
2022-08-24T13:19:32.815Z,100734.59
2022-08-24T13:20:35.000Z,100733.75
2022-08-24T13:21:42.633Z,100737.78
2022-08-24T13:23:03.997Z,100735.69
2022-08-24T13:24:28.267Z,100738.91
2022-08-24T13:25:52.946Z,100733.59
2022-08-24T13:27:18.876Z,100729.50
2022-08-24T13:28:21.118Z,100736.34
2022-08-24T13:29:33.069Z,100727.38